sensor_id;sensor_type;location;lat;lon;timestamp;P1;durP1;ratioP1;P2;durP2;ratioP2
15595;SDS011;7898;48.658;9.068;2022-12-08T00:00:52;15.03;;;9.90;;
15595;SDS011;7898;48.658;9.068;2022-12-08T00:03:18;20.77;;;14.43;;
15595;SDS011;7898;48.658;9.068;2022-12-08T00:05:45;16.40;;;10.07;;
15595;SDS011;7898;48.658;9.068;2022-12-08T00:08:32;12.93;;;9.10;;
15595;SDS011;7898;48.658;9.068;2022-12-08T00:11:17;12.93;;;8.20;;
15595;SDS011;7898;48.658;9.068;2022-12-08T00:13:45;17.77;;;9.13;;
15595;SDS011;7898;48.658;9.068;2022-12-08T00:16:11;14.67;;;8.13;;
15595;SDS011;7898;48.658;9.068;2022-12-08T00:18:38;13.13;;;8.17;;
15595;SDS011;7898;48.658;9.068;2022-12-08T00:21:05;13.53;;;8.77;;
15595;SDS011;7898;48.658;9.068;2022-12-08T00:23:33;15.03;;;8.30;;
15595;SDS011;7898;48.658;9.068;2022-12-08T00:26:01;13.80;;;9.23;;
15595;SDS011;7898;48.658;9.068;2022-12-08T00:28:28;15.07;;;8.33;;
15595;SDS011;7898;48.658;9.068;2022-12-08T00:30:56;12.43;;;8.23;;
15595;SDS011;7898;48.658;9.068;2022-12-08T00:33:23;14.90;;;8.20;;
15595;SDS011;7898;48.658;9.068;2022-12-08T00:35:50;12.10;;;7.80;;
15595;SDS011;7898;48.658;9.068;2022-12-08T00:38:17;14.00;;;8.00;;
15595;SDS011;7898;48.658;9.068;2022-12-08T00:40:45;12.77;;;8.70;;
15595;SDS011;7898;48.658;9.068;2022-12-08T00:43:12;14.17;;;9.03;;
15595;SDS011;7898;48.658;9.068;2022-12-08T00:45:39;15.40;;;9.37;;
15595;SDS011;7898;48.658;9.068;2022-12-08T00:48:06;14.83;;;8.90;;
15595;SDS011;7898;48.658;9.068;2022-12-08T00:50:33;13.50;;;8.20;;
15595;SDS011;7898;48.658;9.068;2022-12-08T00:53:00;13.17;;;8.20;;
15595;SDS011;7898;48.658;9.068;2022-12-08T00:55:27;11.43;;;7.43;;
15595;SDS011;7898;48.658;9.068;2022-12-08T00:57:55;15.00;;;8.53;;
15595;SDS011;7898;48.658;9.068;2022-12-08T01:00:22;13.73;;;8.33;;
15595;SDS011;7898;48.658;9.068;2022-12-08T01:02:49;14.87;;;8.70;;
15595;SDS011;7898;48.658;9.068;2022-12-08T01:05:15;12.67;;;8.10;;
15595;SDS011;7898;48.658;9.068;2022-12-08T01:07:42;13.27;;;7.83;;
15595;SDS011;7898;48.658;9.068;2022-12-08T01:10:09;11.07;;;7.17;;
15595;SDS011;7898;48.658;9.068;2022-12-08T01:12:36;16.27;;;8.23;;
15595;SDS011;7898;48.658;9.068;2022-12-08T01:15:05;11.17;;;6.90;;
15595;SDS011;7898;48.658;9.068;2022-12-08T01:17:32;13.37;;;7.10;;
15595;SDS011;7898;48.658;9.068;2022-12-08T01:19:59;11.33;;;6.80;;
15595;SDS011;7898;48.658;9.068;2022-12-08T01:22:27;15.43;;;7.43;;
15595;SDS011;7898;48.658;9.068;2022-12-08T01:24:54;13.40;;;5.80;;
15595;SDS011;7898;48.658;9.068;2022-12-08T01:27:20;11.60;;;7.47;;
15595;SDS011;7898;48.658;9.068;2022-12-08T01:29:47;10.20;;;6.67;;
15595;SDS011;7898;48.658;9.068;2022-12-08T01:32:15;10.87;;;6.87;;
15595;SDS011;7898;48.658;9.068;2022-12-08T01:34:42;11.53;;;7.03;;
15595;SDS011;7898;48.658;9.068;2022-12-08T01:37:09;12.70;;;7.33;;
15595;SDS011;7898;48.658;9.068;2022-12-08T01:39:36;11.33;;;7.23;;
15595;SDS011;7898;48.658;9.068;2022-12-08T01:42:05;14.20;;;7.73;;
15595;SDS011;7898;48.658;9.068;2022-12-08T01:44:52;12.30;;;6.93;;
15595;SDS011;7898;48.658;9.068;2022-12-08T01:47:23;13.87;;;8.17;;
15595;SDS011;7898;48.658;9.068;2022-12-08T01:49:55;12.37;;;6.83;;
15595;SDS011;7898;48.658;9.068;2022-12-08T01:52:24;12.50;;;7.90;;
15595;SDS011;7898;48.658;9.068;2022-12-08T01:54:59;12.10;;;7.47;;
15595;SDS011;7898;48.658;9.068;2022-12-08T01:57:29;11.80;;;7.40;;
15595;SDS011;7898;48.658;9.068;2022-12-08T02:00:00;12.30;;;7.00;;
15595;SDS011;7898;48.658;9.068;2022-12-08T02:02:31;10.40;;;6.70;;
15595;SDS011;7898;48.658;9.068;2022-12-08T02:05:07;10.63;;;6.87;;
15595;SDS011;7898;48.658;9.068;2022-12-08T02:07:35;12.30;;;7.53;;
15595;SDS011;7898;48.658;9.068;2022-12-08T02:10:03;12.13;;;7.73;;
15595;SDS011;7898;48.658;9.068;2022-12-08T02:12:30;10.80;;;6.97;;
15595;SDS011;7898;48.658;9.068;2022-12-08T02:14:57;13.67;;;7.70;;
15595;SDS011;7898;48.658;9.068;2022-12-08T02:17:30;13.07;;;6.57;;
15595;SDS011;7898;48.658;9.068;2022-12-08T02:20:15;10.37;;;6.90;;
15595;SDS011;7898;48.658;9.068;2022-12-08T02:22:53;11.10;;;7.20;;
15595;SDS011;7898;48.658;9.068;2022-12-08T02:25:29;14.10;;;8.07;;
15595;SDS011;7898;48.658;9.068;2022-12-08T02:28:08;13.43;;;6.93;;
15595;SDS011;7898;48.658;9.068;2022-12-08T02:30:49;12.10;;;7.53;;
15595;SDS011;7898;48.658;9.068;2022-12-08T02:36:20;10.90;;;6.83;;
15595;SDS011;7898;48.658;9.068;2022-12-08T02:38:51;13.33;;;7.30;;
15595;SDS011;7898;48.658;9.068;2022-12-08T02:41:29;12.80;;;7.57;;
15595;SDS011;7898;48.658;9.068;2022-12-08T02:44:04;11.63;;;7.10;;
15595;SDS011;7898;48.658;9.068;2022-12-08T02:46:37;11.70;;;6.80;;
15595;SDS011;7898;48.658;9.068;2022-12-08T02:49:09;13.63;;;8.00;;
15595;SDS011;7898;48.658;9.068;2022-12-08T02:51:39;11.30;;;7.10;;
15595;SDS011;7898;48.658;9.068;2022-12-08T02:54:06;11.87;;;7.70;;
15595;SDS011;7898;48.658;9.068;2022-12-08T02:56:36;12.63;;;7.40;;
15595;SDS011;7898;48.658;9.068;2022-12-08T02:59:22;13.67;;;7.80;;
15595;SDS011;7898;48.658;9.068;2022-12-08T03:01:59;11.77;;;7.20;;
15595;SDS011;7898;48.658;9.068;2022-12-08T03:04:45;15.47;;;7.77;;
15595;SDS011;7898;48.658;9.068;2022-12-08T03:07:20;10.07;;;6.47;;
15595;SDS011;7898;48.658;9.068;2022-12-08T03:09:50;11.33;;;6.80;;
15595;SDS011;7898;48.658;9.068;2022-12-08T03:12:23;12.27;;;7.13;;
15595;SDS011;7898;48.658;9.068;2022-12-08T03:14:54;12.83;;;7.27;;
15595;SDS011;7898;48.658;9.068;2022-12-08T03:17:25;10.07;;;6.97;;
15595;SDS011;7898;48.658;9.068;2022-12-08T03:19:56;12.73;;;7.33;;
15595;SDS011;7898;48.658;9.068;2022-12-08T03:22:26;10.63;;;7.00;;
15595;SDS011;7898;48.658;9.068;2022-12-08T03:24:54;13.20;;;7.00;;
15595;SDS011;7898;48.658;9.068;2022-12-08T03:27:22;13.77;;;7.40;;
15595;SDS011;7898;48.658;9.068;2022-12-08T03:29:52;10.63;;;6.53;;
15595;SDS011;7898;48.658;9.068;2022-12-08T03:32:21;13.90;;;7.13;;
15595;SDS011;7898;48.658;9.068;2022-12-08T03:34:52;12.30;;;7.60;;
15595;SDS011;7898;48.658;9.068;2022-12-08T03:37:23;12.40;;;7.33;;
15595;SDS011;7898;48.658;9.068;2022-12-08T03:39:51;12.03;;;6.97;;
15595;SDS011;7898;48.658;9.068;2022-12-08T03:42:18;14.80;;;6.87;;
15595;SDS011;7898;48.658;9.068;2022-12-08T03:44:45;14.13;;;7.73;;
15595;SDS011;7898;48.658;9.068;2022-12-08T03:47:12;9.53;;;6.77;;
15595;SDS011;7898;48.658;9.068;2022-12-08T03:49:39;11.60;;;7.70;;
15595;SDS011;7898;48.658;9.068;2022-12-08T03:52:05;10.87;;;6.43;;
15595;SDS011;7898;48.658;9.068;2022-12-08T03:54:34;12.83;;;8.17;;
15595;SDS011;7898;48.658;9.068;2022-12-08T03:57:00;13.67;;;7.27;;
15595;SDS011;7898;48.658;9.068;2022-12-08T03:59:27;13.80;;;7.60;;
15595;SDS011;7898;48.658;9.068;2022-12-08T04:01:54;12.33;;;7.63;;
15595;SDS011;7898;48.658;9.068;2022-12-08T04:04:21;12.50;;;7.70;;
15595;SDS011;7898;48.658;9.068;2022-12-08T04:06:48;14.10;;;7.83;;
15595;SDS011;7898;48.658;9.068;2022-12-08T04:09:15;18.50;;;8.97;;
15595;SDS011;7898;48.658;9.068;2022-12-08T04:11:43;12.47;;;7.47;;
15595;SDS011;7898;48.658;9.068;2022-12-08T04:14:10;13.60;;;8.03;;
15595;SDS011;7898;48.658;9.068;2022-12-08T04:16:37;11.63;;;7.30;;
15595;SDS011;7898;48.658;9.068;2022-12-08T04:19:04;13.13;;;7.67;;
15595;SDS011;7898;48.658;9.068;2022-12-08T04:21:31;12.87;;;7.47;;
15595;SDS011;7898;48.658;9.068;2022-12-08T04:23:58;13.13;;;8.70;;
15595;SDS011;7898;48.658;9.068;2022-12-08T04:26:25;16.20;;;9.20;;
15595;SDS011;7898;48.658;9.068;2022-12-08T04:28:53;11.97;;;7.70;;
15595;SDS011;7898;48.658;9.068;2022-12-08T04:31:20;14.47;;;8.97;;
15595;SDS011;7898;48.658;9.068;2022-12-08T04:33:47;13.80;;;8.40;;
15595;SDS011;7898;48.658;9.068;2022-12-08T04:36:13;15.97;;;7.70;;
15595;SDS011;7898;48.658;9.068;2022-12-08T04:38:40;11.47;;;7.33;;
15595;SDS011;7898;48.658;9.068;2022-12-08T04:41:07;12.13;;;7.03;;
15595;SDS011;7898;48.658;9.068;2022-12-08T04:43:34;12.83;;;7.10;;
15595;SDS011;7898;48.658;9.068;2022-12-08T04:46:05;12.77;;;7.03;;
15595;SDS011;7898;48.658;9.068;2022-12-08T04:48:33;12.40;;;6.50;;
15595;SDS011;7898;48.658;9.068;2022-12-08T04:51:02;10.83;;;6.63;;
15595;SDS011;7898;48.658;9.068;2022-12-08T04:53:29;10.13;;;6.73;;
15595;SDS011;7898;48.658;9.068;2022-12-08T04:55:56;12.20;;;7.40;;
15595;SDS011;7898;48.658;9.068;2022-12-08T04:58:23;13.60;;;7.60;;
15595;SDS011;7898;48.658;9.068;2022-12-08T05:00:50;14.27;;;7.97;;
15595;SDS011;7898;48.658;9.068;2022-12-08T05:03:18;13.67;;;7.97;;
15595;SDS011;7898;48.658;9.068;2022-12-08T05:05:45;14.83;;;7.90;;
15595;SDS011;7898;48.658;9.068;2022-12-08T05:08:12;13.03;;;7.23;;
15595;SDS011;7898;48.658;9.068;2022-12-08T05:10:38;12.90;;;8.10;;
15595;SDS011;7898;48.658;9.068;2022-12-08T05:13:05;11.73;;;7.93;;
15595;SDS011;7898;48.658;9.068;2022-12-08T05:15:32;14.07;;;7.17;;
15595;SDS011;7898;48.658;9.068;2022-12-08T05:17:59;15.40;;;8.17;;
15595;SDS011;7898;48.658;9.068;2022-12-08T05:20:27;16.47;;;8.30;;
15595;SDS011;7898;48.658;9.068;2022-12-08T05:22:54;14.17;;;8.00;;
15595;SDS011;7898;48.658;9.068;2022-12-08T05:25:21;14.73;;;8.97;;
15595;SDS011;7898;48.658;9.068;2022-12-08T05:27:48;15.23;;;8.10;;
15595;SDS011;7898;48.658;9.068;2022-12-08T05:30:15;12.27;;;7.70;;
15595;SDS011;7898;48.658;9.068;2022-12-08T05:32:42;12.80;;;8.03;;
15595;SDS011;7898;48.658;9.068;2022-12-08T05:35:09;12.37;;;7.47;;
15595;SDS011;7898;48.658;9.068;2022-12-08T05:37:38;10.70;;;6.60;;
15595;SDS011;7898;48.658;9.068;2022-12-08T05:40:05;11.53;;;7.37;;
15595;SDS011;7898;48.658;9.068;2022-12-08T05:42:32;11.07;;;6.47;;
15595;SDS011;7898;48.658;9.068;2022-12-08T05:44:59;16.07;;;6.87;;
15595;SDS011;7898;48.658;9.068;2022-12-08T05:47:26;16.90;;;9.77;;
15595;SDS011;7898;48.658;9.068;2022-12-08T05:49:53;16.50;;;9.93;;
15595;SDS011;7898;48.658;9.068;2022-12-08T05:52:20;15.70;;;10.00;;
15595;SDS011;7898;48.658;9.068;2022-12-08T05:54:48;14.70;;;9.87;;
15595;SDS011;7898;48.658;9.068;2022-12-08T05:57:15;16.23;;;9.83;;
15595;SDS011;7898;48.658;9.068;2022-12-08T05:59:42;13.43;;;8.50;;
15595;SDS011;7898;48.658;9.068;2022-12-08T06:02:09;43.47;;;19.97;;
15595;SDS011;7898;48.658;9.068;2022-12-08T06:04:35;29.67;;;15.20;;
15595;SDS011;7898;48.658;9.068;2022-12-08T06:07:02;24.93;;;14.37;;
15595;SDS011;7898;48.658;9.068;2022-12-08T06:09:29;20.20;;;13.03;;
15595;SDS011;7898;48.658;9.068;2022-12-08T06:11:58;13.20;;;8.20;;
15595;SDS011;7898;48.658;9.068;2022-12-08T06:14:24;12.57;;;7.50;;
15595;SDS011;7898;48.658;9.068;2022-12-08T06:16:51;13.77;;;7.77;;
15595;SDS011;7898;48.658;9.068;2022-12-08T06:19:18;11.93;;;7.60;;
15595;SDS011;7898;48.658;9.068;2022-12-08T06:21:45;16.27;;;8.20;;
15595;SDS011;7898;48.658;9.068;2022-12-08T06:24:12;13.80;;;7.40;;
15595;SDS011;7898;48.658;9.068;2022-12-08T06:26:39;16.47;;;7.87;;
15595;SDS011;7898;48.658;9.068;2022-12-08T06:29:08;12.10;;;7.50;;
15595;SDS011;7898;48.658;9.068;2022-12-08T06:31:35;12.77;;;7.47;;
15595;SDS011;7898;48.658;9.068;2022-12-08T06:34:02;14.70;;;8.30;;
15595;SDS011;7898;48.658;9.068;2022-12-08T06:36:30;15.10;;;8.10;;
15595;SDS011;7898;48.658;9.068;2022-12-08T06:38:58;13.53;;;7.43;;
15595;SDS011;7898;48.658;9.068;2022-12-08T06:41:25;11.80;;;7.40;;
15595;SDS011;7898;48.658;9.068;2022-12-08T06:43:54;16.67;;;8.70;;
15595;SDS011;7898;48.658;9.068;2022-12-08T06:46:22;13.90;;;7.80;;
15595;SDS011;7898;48.658;9.068;2022-12-08T06:48:49;13.93;;;7.80;;
15595;SDS011;7898;48.658;9.068;2022-12-08T06:51:17;17.43;;;8.57;;
15595;SDS011;7898;48.658;9.068;2022-12-08T06:53:46;11.80;;;7.83;;
15595;SDS011;7898;48.658;9.068;2022-12-08T06:56:13;12.70;;;8.10;;
15595;SDS011;7898;48.658;9.068;2022-12-08T06:58:44;21.70;;;11.40;;
15595;SDS011;7898;48.658;9.068;2022-12-08T07:01:11;20.70;;;11.60;;
15595;SDS011;7898;48.658;9.068;2022-12-08T07:03:40;18.97;;;11.90;;
15595;SDS011;7898;48.658;9.068;2022-12-08T07:06:08;12.53;;;8.10;;
15595;SDS011;7898;48.658;9.068;2022-12-08T07:08:40;13.93;;;7.93;;
15595;SDS011;7898;48.658;9.068;2022-12-08T07:11:08;13.50;;;7.43;;
15595;SDS011;7898;48.658;9.068;2022-12-08T07:13:35;16.73;;;7.60;;
15595;SDS011;7898;48.658;9.068;2022-12-08T07:16:03;12.80;;;8.60;;
15595;SDS011;7898;48.658;9.068;2022-12-08T07:18:31;14.50;;;8.53;;
15595;SDS011;7898;48.658;9.068;2022-12-08T07:21:02;13.23;;;8.00;;
15595;SDS011;7898;48.658;9.068;2022-12-08T07:23:30;12.53;;;7.43;;
15595;SDS011;7898;48.658;9.068;2022-12-08T07:25:58;13.37;;;8.00;;
15595;SDS011;7898;48.658;9.068;2022-12-08T07:28:26;14.50;;;8.37;;
15595;SDS011;7898;48.658;9.068;2022-12-08T07:30:54;16.77;;;10.97;;
15595;SDS011;7898;48.658;9.068;2022-12-08T07:33:21;18.65;;;12.10;;
15595;SDS011;7898;48.658;9.068;2022-12-08T07:35:52;14.03;;;7.70;;
15595;SDS011;7898;48.658;9.068;2022-12-08T07:38:21;12.50;;;7.43;;
15595;SDS011;7898;48.658;9.068;2022-12-08T07:40:47;13.03;;;7.87;;
15595;SDS011;7898;48.658;9.068;2022-12-08T07:43:14;12.43;;;7.30;;
15595;SDS011;7898;48.658;9.068;2022-12-08T07:45:41;9.47;;;6.83;;
15595;SDS011;7898;48.658;9.068;2022-12-08T07:48:08;20.40;;;13.73;;
15595;SDS011;7898;48.658;9.068;2022-12-08T07:50:35;11.33;;;8.50;;
15595;SDS011;7898;48.658;9.068;2022-12-08T07:53:02;8.40;;;6.77;;
15595;SDS011;7898;48.658;9.068;2022-12-08T07:55:30;9.33;;;6.73;;
15595;SDS011;7898;48.658;9.068;2022-12-08T07:57:57;10.43;;;6.60;;
15595;SDS011;7898;48.658;9.068;2022-12-08T08:00:24;9.83;;;6.90;;
15595;SDS011;7898;48.658;9.068;2022-12-08T08:02:51;9.10;;;6.63;;
15595;SDS011;7898;48.658;9.068;2022-12-08T08:05:18;9.77;;;7.23;;
15595;SDS011;7898;48.658;9.068;2022-12-08T08:07:45;9.57;;;7.27;;
15595;SDS011;7898;48.658;9.068;2022-12-08T08:10:12;10.03;;;6.97;;
15595;SDS011;7898;48.658;9.068;2022-12-08T08:12:40;10.60;;;6.83;;
15595;SDS011;7898;48.658;9.068;2022-12-08T08:15:07;9.73;;;7.57;;
15595;SDS011;7898;48.658;9.068;2022-12-08T08:17:35;10.17;;;7.60;;
15595;SDS011;7898;48.658;9.068;2022-12-08T08:20:04;8.37;;;6.53;;
15595;SDS011;7898;48.658;9.068;2022-12-08T08:22:34;9.30;;;6.60;;
15595;SDS011;7898;48.658;9.068;2022-12-08T08:25:01;8.27;;;6.50;;
15595;SDS011;7898;48.658;9.068;2022-12-08T08:27:29;13.27;;;9.80;;
15595;SDS011;7898;48.658;9.068;2022-12-08T08:29:57;11.53;;;9.43;;
15595;SDS011;7898;48.658;9.068;2022-12-08T08:32:24;9.70;;;7.53;;
15595;SDS011;7898;48.658;9.068;2022-12-08T08:34:51;9.00;;;7.40;;
15595;SDS011;7898;48.658;9.068;2022-12-08T08:37:18;9.57;;;7.60;;
15595;SDS011;7898;48.658;9.068;2022-12-08T08:39:45;10.17;;;7.50;;
15595;SDS011;7898;48.658;9.068;2022-12-08T08:42:12;9.53;;;7.60;;
15595;SDS011;7898;48.658;9.068;2022-12-08T08:44:38;8.93;;;8.03;;
15595;SDS011;7898;48.658;9.068;2022-12-08T08:47:07;10.80;;;8.33;;
15595;SDS011;7898;48.658;9.068;2022-12-08T08:49:34;9.63;;;8.60;;
15595;SDS011;7898;48.658;9.068;2022-12-08T08:52:01;11.27;;;9.87;;
15595;SDS011;7898;48.658;9.068;2022-12-08T08:54:29;11.65;;;10.35;;
15595;SDS011;7898;48.658;9.068;2022-12-08T08:56:57;12.82;;;11.32;;
15595;SDS011;7898;48.658;9.068;2022-12-08T08:59:25;14.52;;;11.25;;
15595;SDS011;7898;48.658;9.068;2022-12-08T09:01:52;11.75;;;9.88;;
15595;SDS011;7898;48.658;9.068;2022-12-08T09:04:21;11.35;;;9.18;;
15595;SDS011;7898;48.658;9.068;2022-12-08T09:06:49;14.55;;;10.57;;
15595;SDS011;7898;48.658;9.068;2022-12-08T09:09:16;12.38;;;9.52;;
15595;SDS011;7898;48.658;9.068;2022-12-08T09:11:43;15.05;;;11.70;;
15595;SDS011;7898;48.658;9.068;2022-12-08T09:14:10;12.90;;;9.63;;
15595;SDS011;7898;48.658;9.068;2022-12-08T09:16:38;9.50;;;7.80;;
15595;SDS011;7898;48.658;9.068;2022-12-08T09:19:05;9.63;;;7.68;;
15595;SDS011;7898;48.658;9.068;2022-12-08T09:21:33;8.85;;;7.43;;
15595;SDS011;7898;48.658;9.068;2022-12-08T09:24:00;9.05;;;8.05;;
15595;SDS011;7898;48.658;9.068;2022-12-08T09:26:27;7.70;;;6.90;;
15595;SDS011;7898;48.658;9.068;2022-12-08T09:28:55;9.13;;;7.43;;
15595;SDS011;7898;48.658;9.068;2022-12-08T09:31:22;8.50;;;6.70;;
15595;SDS011;7898;48.658;9.068;2022-12-08T09:33:49;9.50;;;6.80;;
15595;SDS011;7898;48.658;9.068;2022-12-08T09:36:16;8.10;;;6.27;;
15595;SDS011;7898;48.658;9.068;2022-12-08T09:38:45;10.93;;;7.33;;
15595;SDS011;7898;48.658;9.068;2022-12-08T09:41:13;18.13;;;8.97;;
15595;SDS011;7898;48.658;9.068;2022-12-08T09:43:50;9.90;;;6.63;;
15595;SDS011;7898;48.658;9.068;2022-12-08T09:46:27;12.33;;;8.57;;
15595;SDS011;7898;48.658;9.068;2022-12-08T09:48:59;12.47;;;8.13;;
15595;SDS011;7898;48.658;9.068;2022-12-08T09:51:29;10.00;;;7.13;;
15595;SDS011;7898;48.658;9.068;2022-12-08T09:54:02;10.93;;;7.40;;
15595;SDS011;7898;48.658;9.068;2022-12-08T09:56:33;13.17;;;9.10;;
15595;SDS011;7898;48.658;9.068;2022-12-08T09:59:02;20.03;;;12.87;;
15595;SDS011;7898;48.658;9.068;2022-12-08T10:01:37;13.87;;;8.00;;
15595;SDS011;7898;48.658;9.068;2022-12-08T10:04:08;10.57;;;6.73;;
15595;SDS011;7898;48.658;9.068;2022-12-08T10:06:45;8.90;;;6.57;;
15595;SDS011;7898;48.658;9.068;2022-12-08T10:09:22;8.30;;;5.80;;
15595;SDS011;7898;48.658;9.068;2022-12-08T10:11:56;8.57;;;6.20;;
15595;SDS011;7898;48.658;9.068;2022-12-08T10:14:30;7.60;;;6.27;;
15595;SDS011;7898;48.658;9.068;2022-12-08T10:17:04;10.23;;;6.90;;
15595;SDS011;7898;48.658;9.068;2022-12-08T10:19:41;6.73;;;5.60;;
15595;SDS011;7898;48.658;9.068;2022-12-08T10:22:11;9.10;;;6.30;;
15595;SDS011;7898;48.658;9.068;2022-12-08T10:24:47;12.13;;;8.90;;
15595;SDS011;7898;48.658;9.068;2022-12-08T10:27:21;7.63;;;5.77;;
15595;SDS011;7898;48.658;9.068;2022-12-08T10:29:48;8.17;;;5.77;;
15595;SDS011;7898;48.658;9.068;2022-12-08T10:32:16;9.20;;;7.00;;
15595;SDS011;7898;48.658;9.068;2022-12-08T10:34:57;20.53;;;13.37;;
15595;SDS011;7898;48.658;9.068;2022-12-08T10:37:26;9.90;;;6.83;;
15595;SDS011;7898;48.658;9.068;2022-12-08T10:39:59;24.33;;;15.90;;
15595;SDS011;7898;48.658;9.068;2022-12-08T10:42:30;8.57;;;6.30;;
15595;SDS011;7898;48.658;9.068;2022-12-08T10:45:03;8.33;;;5.60;;
15595;SDS011;7898;48.658;9.068;2022-12-08T10:47:54;8.13;;;5.97;;
15595;SDS011;7898;48.658;9.068;2022-12-08T10:50:27;8.73;;;6.67;;
15595;SDS011;7898;48.658;9.068;2022-12-08T10:52:57;9.93;;;6.10;;
15595;SDS011;7898;48.658;9.068;2022-12-08T10:55:27;8.43;;;6.47;;
15595;SDS011;7898;48.658;9.068;2022-12-08T10:57:55;13.73;;;7.17;;
15595;SDS011;7898;48.658;9.068;2022-12-08T11:00:23;11.00;;;7.80;;
15595;SDS011;7898;48.658;9.068;2022-12-08T11:02:56;8.87;;;6.53;;
15595;SDS011;7898;48.658;9.068;2022-12-08T11:05:25;10.67;;;7.40;;
15595;SDS011;7898;48.658;9.068;2022-12-08T11:07:54;8.60;;;5.73;;
15595;SDS011;7898;48.658;9.068;2022-12-08T11:10:28;8.80;;;5.70;;
15595;SDS011;7898;48.658;9.068;2022-12-08T11:13:01;9.67;;;5.47;;
15595;SDS011;7898;48.658;9.068;2022-12-08T11:15:31;7.77;;;4.90;;
15595;SDS011;7898;48.658;9.068;2022-12-08T11:18:05;11.40;;;5.97;;
15595;SDS011;7898;48.658;9.068;2022-12-08T11:20:47;11.57;;;6.67;;
15595;SDS011;7898;48.658;9.068;2022-12-08T11:23:23;14.80;;;8.67;;
15595;SDS011;7898;48.658;9.068;2022-12-08T11:25:53;8.53;;;5.00;;
15595;SDS011;7898;48.658;9.068;2022-12-08T11:28:23;8.30;;;5.53;;
15595;SDS011;7898;48.658;9.068;2022-12-08T11:30:53;8.93;;;5.93;;
15595;SDS011;7898;48.658;9.068;2022-12-08T11:33:26;8.17;;;5.37;;
15595;SDS011;7898;48.658;9.068;2022-12-08T11:35:55;10.83;;;6.30;;
15595;SDS011;7898;48.658;9.068;2022-12-08T11:38:25;8.93;;;6.23;;
15595;SDS011;7898;48.658;9.068;2022-12-08T11:40:56;8.63;;;5.53;;
15595;SDS011;7898;48.658;9.068;2022-12-08T11:43:28;9.40;;;6.03;;
15595;SDS011;7898;48.658;9.068;2022-12-08T11:46:03;6.57;;;4.83;;
15595;SDS011;7898;48.658;9.068;2022-12-08T11:48:36;6.07;;;4.40;;
15595;SDS011;7898;48.658;9.068;2022-12-08T11:51:10;6.40;;;4.47;;
15595;SDS011;7898;48.658;9.068;2022-12-08T11:53:41;7.53;;;5.40;;
15595;SDS011;7898;48.658;9.068;2022-12-08T11:56:15;5.67;;;3.93;;
15595;SDS011;7898;48.658;9.068;2022-12-08T11:58:47;6.03;;;4.57;;
15595;SDS011;7898;48.658;9.068;2022-12-08T12:01:19;7.60;;;4.43;;
15595;SDS011;7898;48.658;9.068;2022-12-08T12:03:50;6.93;;;4.90;;
15595;SDS011;7898;48.658;9.068;2022-12-08T12:06:27;5.67;;;4.60;;
15595;SDS011;7898;48.658;9.068;2022-12-08T12:09:15;7.83;;;4.97;;
15595;SDS011;7898;48.658;9.068;2022-12-08T12:11:49;10.17;;;5.90;;
15595;SDS011;7898;48.658;9.068;2022-12-08T12:14:53;7.60;;;5.40;;
15595;SDS011;7898;48.658;9.068;2022-12-08T12:17:40;10.93;;;5.93;;
15595;SDS011;7898;48.658;9.068;2022-12-08T12:20:13;7.97;;;6.60;;
15595;SDS011;7898;48.658;9.068;2022-12-08T12:22:44;7.73;;;4.97;;
15595;SDS011;7898;48.658;9.068;2022-12-08T12:25:15;7.90;;;5.17;;
15595;SDS011;7898;48.658;9.068;2022-12-08T12:27:46;11.63;;;6.60;;
15595;SDS011;7898;48.658;9.068;2022-12-08T12:30:19;13.50;;;7.30;;
15595;SDS011;7898;48.658;9.068;2022-12-08T12:32:52;9.67;;;5.67;;
15595;SDS011;7898;48.658;9.068;2022-12-08T12:35:25;8.43;;;5.53;;
15595;SDS011;7898;48.658;9.068;2022-12-08T12:37:57;7.97;;;5.33;;
15595;SDS011;7898;48.658;9.068;2022-12-08T12:40:28;9.43;;;6.00;;
15595;SDS011;7898;48.658;9.068;2022-12-08T12:43:23;9.93;;;5.27;;
15595;SDS011;7898;48.658;9.068;2022-12-08T12:52:03;9.13;;;5.20;;
15595;SDS011;7898;48.658;9.068;2022-12-08T12:57:49;12.77;;;6.33;;
15595;SDS011;7898;48.658;9.068;2022-12-08T13:00:18;5.13;;;3.67;;
15595;SDS011;7898;48.658;9.068;2022-12-08T13:02:46;6.20;;;4.17;;
15595;SDS011;7898;48.658;9.068;2022-12-08T13:05:15;7.20;;;5.23;;
15595;SDS011;7898;48.658;9.068;2022-12-08T13:07:46;8.33;;;5.17;;
15595;SDS011;7898;48.658;9.068;2022-12-08T13:10:19;8.70;;;4.23;;
15595;SDS011;7898;48.658;9.068;2022-12-08T13:13:02;5.47;;;3.73;;
15595;SDS011;7898;48.658;9.068;2022-12-08T13:15:32;8.50;;;4.50;;
15595;SDS011;7898;48.658;9.068;2022-12-08T13:18:01;5.43;;;3.87;;
15595;SDS011;7898;48.658;9.068;2022-12-08T13:20:28;4.63;;;3.70;;
15595;SDS011;7898;48.658;9.068;2022-12-08T13:23:10;6.23;;;3.50;;
15595;SDS011;7898;48.658;9.068;2022-12-08T13:25:52;6.60;;;3.77;;
15595;SDS011;7898;48.658;9.068;2022-12-08T13:28:36;5.60;;;3.47;;
15595;SDS011;7898;48.658;9.068;2022-12-08T13:31:38;5.83;;;3.20;;
15595;SDS011;7898;48.658;9.068;2022-12-08T13:34:06;7.10;;;3.50;;
15595;SDS011;7898;48.658;9.068;2022-12-08T13:36:40;7.17;;;5.00;;
15595;SDS011;7898;48.658;9.068;2022-12-08T13:39:14;7.73;;;5.10;;
15595;SDS011;7898;48.658;9.068;2022-12-08T13:41:51;6.60;;;4.83;;
15595;SDS011;7898;48.658;9.068;2022-12-08T13:44:25;5.80;;;4.33;;
15595;SDS011;7898;48.658;9.068;2022-12-08T13:46:57;7.77;;;3.87;;
15595;SDS011;7898;48.658;9.068;2022-12-08T13:49:26;7.80;;;4.57;;
15595;SDS011;7898;48.658;9.068;2022-12-08T13:51:58;7.87;;;5.37;;
15595;SDS011;7898;48.658;9.068;2022-12-08T13:54:27;9.23;;;5.87;;
15595;SDS011;7898;48.658;9.068;2022-12-08T13:56:58;14.20;;;7.87;;
15595;SDS011;7898;48.658;9.068;2022-12-08T13:59:27;10.17;;;6.70;;
15595;SDS011;7898;48.658;9.068;2022-12-08T14:01:59;10.67;;;7.80;;
15595;SDS011;7898;48.658;9.068;2022-12-08T14:04:30;9.60;;;6.97;;
15595;SDS011;7898;48.658;9.068;2022-12-08T14:06:58;6.63;;;5.63;;
15595;SDS011;7898;48.658;9.068;2022-12-08T14:09:31;12.80;;;7.13;;
15595;SDS011;7898;48.658;9.068;2022-12-08T14:12:02;8.07;;;4.43;;
15595;SDS011;7898;48.658;9.068;2022-12-08T14:14:32;5.47;;;4.13;;
15595;SDS011;7898;48.658;9.068;2022-12-08T14:17:04;6.10;;;4.37;;
15595;SDS011;7898;48.658;9.068;2022-12-08T14:19:33;7.80;;;5.00;;
15595;SDS011;7898;48.658;9.068;2022-12-08T14:22:01;7.13;;;4.90;;
15595;SDS011;7898;48.658;9.068;2022-12-08T14:24:31;10.63;;;5.60;;
15595;SDS011;7898;48.658;9.068;2022-12-08T14:26:58;13.73;;;9.47;;
15595;SDS011;7898;48.658;9.068;2022-12-08T14:29:38;13.00;;;7.57;;
15595;SDS011;7898;48.658;9.068;2022-12-08T14:32:18;9.97;;;7.17;;
15595;SDS011;7898;48.658;9.068;2022-12-08T14:34:49;9.23;;;7.33;;
15595;SDS011;7898;48.658;9.068;2022-12-08T14:37:19;9.20;;;8.03;;
15595;SDS011;7898;48.658;9.068;2022-12-08T14:39:46;10.80;;;7.57;;
15595;SDS011;7898;48.658;9.068;2022-12-08T14:42:17;9.83;;;6.70;;
15595;SDS011;7898;48.658;9.068;2022-12-08T14:44:50;9.77;;;6.00;;
15595;SDS011;7898;48.658;9.068;2022-12-08T14:47:22;10.20;;;5.83;;
15595;SDS011;7898;48.658;9.068;2022-12-08T14:49:54;6.67;;;5.10;;
15595;SDS011;7898;48.658;9.068;2022-12-08T14:52:22;10.07;;;4.97;;
15595;SDS011;7898;48.658;9.068;2022-12-08T14:54:49;9.33;;;6.77;;
15595;SDS011;7898;48.658;9.068;2022-12-08T14:57:17;18.63;;;11.03;;
15595;SDS011;7898;48.658;9.068;2022-12-08T14:59:44;6.90;;;4.73;;
15595;SDS011;7898;48.658;9.068;2022-12-08T15:02:22;18.00;;;9.17;;
15595;SDS011;7898;48.658;9.068;2022-12-08T15:04:56;16.03;;;9.23;;
15595;SDS011;7898;48.658;9.068;2022-12-08T15:07:26;21.87;;;12.07;;
15595;SDS011;7898;48.658;9.068;2022-12-08T15:12:58;28.93;;;14.67;;
15595;SDS011;7898;48.658;9.068;2022-12-08T15:15:31;15.50;;;9.70;;
15595;SDS011;7898;48.658;9.068;2022-12-08T15:18:13;27.90;;;15.30;;
15595;SDS011;7898;48.658;9.068;2022-12-08T15:20:42;28.50;;;17.03;;
15595;SDS011;7898;48.658;9.068;2022-12-08T15:25:54;17.20;;;11.13;;